Maike D — V2FO4 — position and weather

sailwx.info

Track history (hours):
 
Tides and Currents Weather Stations Pressure Air Temp Water Temp Dewpoint Dewpoint Depression Visibility Wind Speed Wind Dir Waves Ship Positions

Maike D

Last reported at 2014-Jul-21 16:27 UTC. Time now 2014-Jul-22 09:17 UTC.
Position N 36°39' E 026°35'.

Length 133 m; draft 7.5 m.

Type: Ship (hazmat cat A). MMSI: 305739000.

Date/timePositionNaut miles runAvg speedWind from/ knotsBaromVisibWave heightAir tempDewpointWater temp
2014-Jul-21 16:27N 36°39' E 026°35'1414.9
2014-Jul-21 15:32N 36°49' E 026°23'1515.0
2014-Jul-21 14:33N 37°00' E 026°11'1514.9
2014-Jul-21 13:33N 37°14' E 026°03'1514.9
2014-Jul-21 12:33N 37°27' E 025°54'1514.8
2014-Jul-21 11:33N 37°41' E 025°49'3014.8
2014-Jul-21 09:31N 38°11' E 025°46'1515.1
2014-Jul-21 08:32N 38°26' E 025°46'  
2014-Jul-18 20:18N 39°03' E 025°53'4511.9
2014-Jul-18 16:30N 39°48' E 025°51'1313.4
2014-Jul-18 15:34N 39°60' E 025°57'  
2014-Jul-14 13:33N 43°20' E 034°26'1413.9
2014-Jul-14 12:34N 43°26' E 034°43'1413.9
2014-Jul-14 11:34N 43°32' E 035°00'1413.6
2014-Jul-14 10:30N 43°39' E 035°18'2913.1
2014-Jul-14 08:15N 43°53' E 035°54'913.0
2014-Jul-14 07:34N 43°57' E 036°05'1513.3
2014-Jul-14 06:27N 44°03' E 036°23'56 1.6
2014-Jul-12 18:32N 44°26' E 037°35'1111.8
2014-Jul-12 17:33N 44°21' E 037°21'1313.0
2014-Jul-12 16:33N 44°15' E 037°05'4713.5
2014-Jul-12 13:04N 43°54' E 036°06'813.4
2014-Jul-12 12:30N 43°50' E 035°57'1313.3
2014-Jul-12 11:33N 43°44' E 035°41'3013.3
2014-Jul-12 09:18N 43°30' E 035°05'  
Track history (hours):
 
Tides and Currents Weather Stations Pressure Air Temp Water Temp Dewpoint Dewpoint Depression Visibility Wind Speed Wind Dir Waves Ship Positions

Maike D

Last reported at 2014-Jul-21 16:27 UTC. Time now 2014-Jul-22 09:17 UTC.
Position N 36°39' E 026°35'.

Length 133 m; draft 7.5 m.

Type: Ship (hazmat cat A). MMSI: 305739000.

Date/timePositionNaut miles runAvg speedWind from/ knotsBaromVisibWave heightAir tempDewpointWater temp
2014-Jul-21 16:27N 36°39' E 026°35'1414.9
2014-Jul-21 15:32N 36°49' E 026°23'1515.0
2014-Jul-21 14:33N 37°00' E 026°11'1514.9
2014-Jul-21 13:33N 37°14' E 026°03'1514.9
2014-Jul-21 12:33N 37°27' E 025°54'1514.8
2014-Jul-21 11:33N 37°41' E 025°49'3014.8
2014-Jul-21 09:31N 38°11' E 025°46'1515.1
2014-Jul-21 08:32N 38°26' E 025°46'  
2014-Jul-18 20:18N 39°03' E 025°53'4511.9
2014-Jul-18 16:30N 39°48' E 025°51'1313.4
2014-Jul-18 15:34N 39°60' E 025°57'  
2014-Jul-14 13:33N 43°20' E 034°26'1413.9
2014-Jul-14 12:34N 43°26' E 034°43'1413.9
2014-Jul-14 11:34N 43°32' E 035°00'1413.6
2014-Jul-14 10:30N 43°39' E 035°18'2913.1
2014-Jul-14 08:15N 43°53' E 035°54'913.0
2014-Jul-14 07:34N 43°57' E 036°05'1513.3
2014-Jul-14 06:27N 44°03' E 036°23'56 1.6
2014-Jul-12 18:32N 44°26' E 037°35'1111.8
2014-Jul-12 17:33N 44°21' E 037°21'1313.0
2014-Jul-12 16:33N 44°15' E 037°05'4713.5
2014-Jul-12 13:04N 43°54' E 036°06'813.4
2014-Jul-12 12:30N 43°50' E 035°57'1313.3
2014-Jul-12 11:33N 43°44' E 035°41'3013.3
2014-Jul-12 09:18N 43°30' E 035°05'  

Dump ship's entire track history